createdAt,value
2018-09-30T00:00:01.577Z,99.90
2018-09-30T00:02:30.718Z,99.90
2018-09-30T00:04:59.741Z,99.90
2018-09-30T00:07:28.694Z,99.90
2018-09-30T00:09:57.758Z,99.90
2018-09-30T00:12:26.890Z,99.90
2018-09-30T00:14:55.875Z,99.90
2018-09-30T00:17:24.879Z,99.90
2018-09-30T00:19:53.550Z,99.90
2018-09-30T00:22:22.166Z,99.90
2018-09-30T00:24:56.159Z,99.90
2018-09-30T00:27:24.765Z,99.90
2018-09-30T00:29:55.433Z,99.90
2018-09-30T00:32:24.039Z,99.90
2018-09-30T00:34:52.645Z,99.90
2018-09-30T00:37:21.333Z,99.90
2018-09-30T00:39:49.923Z,99.90
2018-09-30T00:42:18.513Z,99.90
2018-09-30T00:44:47.119Z,99.90
2018-09-30T00:47:15.777Z,99.90
2018-09-30T00:49:44.391Z,99.90
2018-09-30T00:52:13.131Z,99.90
2018-09-30T00:54:41.737Z,99.90
2018-09-30T00:57:19.775Z,99.90
2018-09-30T00:59:48.343Z,99.90
2018-09-30T01:02:16.936Z,99.90
2018-09-30T01:04:45.547Z,99.90
2018-09-30T01:07:14.112Z,99.90
2018-09-30T01:09:42.805Z,99.90
2018-09-30T01:12:11.504Z,99.90
2018-09-30T01:14:40.090Z,99.90
2018-09-30T01:17:08.684Z,99.90
2018-09-30T01:19:37.308Z,99.90
2018-09-30T01:22:07.102Z,99.90
2018-09-30T01:24:35.778Z,99.90
2018-09-30T01:27:04.393Z,99.90
2018-09-30T01:29:33.001Z,99.90
2018-09-30T01:32:01.612Z,99.90
2018-09-30T01:34:30.273Z,99.90
2018-09-30T01:36:58.903Z,99.90
2018-09-30T01:39:27.547Z,99.90
2018-09-30T01:41:56.174Z,99.90
2018-09-30T01:44:24.779Z,99.90
2018-09-30T01:46:53.344Z,99.90
2018-09-30T01:49:24.015Z,99.90
2018-09-30T01:52:03.903Z,99.90
2018-09-30T01:54:32.543Z,99.90
2018-09-30T01:57:01.141Z,99.90
2018-09-30T01:59:29.805Z,99.90
2018-09-30T02:01:58.457Z,99.90
2018-09-30T02:04:27.071Z,99.90
2018-09-30T02:06:55.738Z,99.90
2018-09-30T02:09:24.398Z,99.90
2018-09-30T02:12:03.491Z,99.90
2018-09-30T02:14:32.053Z,99.90
2018-09-30T02:17:00.764Z,99.90
2018-09-30T02:19:29.411Z,99.90
2018-09-30T02:21:58.007Z,99.90
2018-09-30T02:24:26.611Z,99.90
2018-09-30T02:26:56.283Z,99.90
2018-09-30T02:29:24.938Z,99.90
2018-09-30T02:31:53.572Z,99.90
2018-09-30T02:34:22.224Z,99.90
2018-09-30T02:36:50.808Z,99.90
2018-09-30T02:39:27.292Z,99.90
2018-09-30T02:41:55.921Z,99.90
2018-09-30T02:44:24.504Z,99.90
2018-09-30T02:46:53.101Z,99.90
2018-09-30T02:49:24.609Z,99.90
2018-09-30T02:51:53.305Z,99.90
2018-09-30T02:54:21.967Z,99.90
2018-09-30T02:56:50.957Z,99.90
2018-09-30T02:59:19.640Z,99.90
2018-09-30T03:01:48.333Z,99.90
2018-09-30T03:04:16.937Z,99.90
2018-09-30T03:06:50.914Z,99.90
2018-09-30T03:09:19.789Z,99.90
2018-09-30T03:11:48.458Z,99.90
2018-09-30T03:14:17.591Z,99.90
2018-09-30T03:16:47.012Z,99.90
2018-09-30T03:19:16.512Z,99.90
2018-09-30T03:21:45.125Z,99.90
2018-09-30T03:24:13.785Z,99.90
2018-09-30T03:26:42.727Z,99.90
2018-09-30T03:29:11.753Z,99.90
2018-09-30T03:31:40.375Z,99.90
2018-09-30T03:34:08.956Z,99.90
2018-09-30T03:36:37.573Z,99.90
2018-09-30T03:39:07.901Z,99.90
2018-09-30T03:41:36.561Z,99.90
2018-09-30T03:44:05.185Z,99.90
2018-09-30T03:46:33.811Z,99.90
2018-09-30T03:49:02.417Z,99.90
2018-09-30T03:51:30.974Z,99.90
2018-09-30T03:53:59.613Z,99.90
2018-09-30T03:56:28.269Z,99.90
2018-09-30T03:58:56.820Z,99.90
2018-09-30T04:01:25.489Z,99.90
2018-09-30T04:03:54.010Z,99.90
2018-09-30T04:06:22.643Z,99.90
2018-09-30T04:08:58.134Z,99.90
2018-09-30T04:11:26.734Z,99.90
2018-09-30T04:13:55.293Z,99.90
2018-09-30T04:16:23.913Z,99.90
2018-09-30T04:18:52.555Z,99.90
2018-09-30T04:21:22.276Z,99.90
2018-09-30T04:23:55.067Z,99.90
2018-09-30T04:26:23.669Z,99.90
2018-09-30T04:33:41.728Z,99.90
2018-09-30T04:36:12.427Z,99.90
2018-09-30T04:38:41.006Z,99.90
2018-09-30T04:41:09.639Z,99.90
2018-09-30T04:43:38.178Z,99.90
2018-09-30T04:46:07.073Z,99.90
2018-09-30T04:48:35.677Z,99.90
2018-09-30T04:51:04.273Z,99.90
2018-09-30T04:53:32.812Z,99.90
2018-09-30T04:56:01.454Z,99.90
2018-09-30T04:58:29.995Z,99.90
2018-09-30T05:00:58.593Z,99.90
2018-09-30T05:03:29.189Z,99.90
2018-09-30T05:05:58.077Z,99.90
2018-09-30T05:08:26.663Z,99.90
2018-09-30T05:10:55.297Z,99.90
2018-09-30T05:13:23.905Z,99.90
2018-09-30T05:15:56.164Z,99.90
2018-09-30T05:18:24.803Z,99.90
2018-09-30T05:20:55.657Z,99.90
2018-09-30T05:23:26.433Z,99.90
2018-09-30T05:25:55.097Z,99.90
2018-09-30T05:28:24.108Z,99.90
2018-09-30T05:30:53.024Z,99.90
2018-09-30T05:33:22.324Z,99.90
2018-09-30T05:35:51.200Z,99.90
2018-09-30T05:38:20.238Z,99.90
2018-09-30T05:40:49.534Z,99.90
2018-09-30T05:43:18.489Z,99.90
2018-09-30T05:45:47.517Z,99.90
2018-09-30T05:48:16.490Z,99.90
2018-09-30T05:50:47.554Z,99.90
2018-09-30T05:53:16.588Z,99.90
2018-09-30T05:55:45.652Z,99.90
2018-09-30T05:58:14.687Z,99.90
2018-09-30T06:00:43.729Z,99.90
2018-09-30T06:03:14.894Z,99.90
2018-09-30T06:05:44.002Z,99.90
2018-09-30T06:08:13.141Z,99.90
2018-09-30T06:10:42.202Z,99.90
2018-09-30T06:13:11.347Z,99.90
2018-09-30T06:15:40.309Z,99.90
2018-09-30T06:18:09.392Z,99.90
2018-09-30T06:20:39.522Z,99.90
2018-09-30T06:23:08.572Z,99.90
2018-09-30T06:25:37.485Z,99.90
2018-09-30T06:28:08.725Z,99.90
2018-09-30T06:30:37.870Z,99.90
2018-09-30T06:33:07.161Z,99.90
2018-09-30T06:35:36.223Z,99.90
2018-09-30T06:38:10.270Z,99.90
2018-09-30T06:40:46.818Z,99.90
2018-09-30T06:43:18.200Z,99.90
2018-09-30T06:45:48.661Z,99.90
2018-09-30T06:48:19.490Z,99.90
2018-09-30T06:50:49.904Z,99.90
2018-09-30T06:53:28.122Z,99.90
2018-09-30T06:55:59.547Z,99.90
2018-09-30T06:58:32.542Z,99.90
2018-09-30T07:01:03.560Z,99.90
2018-09-30T07:03:38.560Z,99.90
2018-09-30T07:06:07.851Z,99.90
2018-09-30T07:08:37.181Z,99.90
2018-09-30T07:11:07.250Z,99.90
2018-09-30T07:13:36.719Z,99.90
2018-09-30T07:16:05.841Z,99.90
2018-09-30T07:18:39.690Z,99.90
2018-09-30T07:21:15.522Z,99.90
2018-09-30T07:23:46.925Z,99.90
2018-09-30T07:26:20.262Z,99.90
2018-09-30T07:28:49.483Z,99.90
2018-09-30T07:31:18.718Z,99.80
2018-09-30T07:33:48.599Z,99.30
2018-09-30T07:36:17.273Z,98.90
2018-09-30T07:45:48.540Z,98.00
2018-09-30T07:48:17.242Z,97.40
2018-09-30T07:50:46.978Z,97.30
2018-09-30T07:53:16.828Z,96.50
2018-09-30T07:55:46.051Z,95.60
2018-09-30T07:58:15.766Z,95.00
2018-09-30T08:00:57.487Z,94.60
2018-09-30T08:03:27.362Z,94.00
2018-09-30T08:06:14.057Z,94.00
2018-09-30T08:08:43.580Z,93.70
2018-09-30T08:11:16.680Z,93.20
2018-09-30T08:13:46.391Z,92.50
2018-09-30T08:16:16.118Z,92.10
2018-09-30T08:18:51.954Z,91.80
2018-09-30T08:21:21.687Z,91.40
2018-09-30T08:23:58.054Z,91.20
2018-09-30T08:26:28.096Z,90.50
2018-09-30T08:28:58.191Z,90.40
2018-09-30T08:31:28.689Z,89.80
2018-09-30T08:33:58.309Z,89.30
2018-09-30T08:36:34.266Z,88.60
2018-09-30T08:39:10.438Z,88.00
2018-09-30T08:41:41.393Z,88.10
2018-09-30T08:44:16.283Z,86.70
2018-09-30T08:46:46.036Z,86.60
2018-09-30T08:49:15.909Z,86.70
2018-09-30T08:51:45.686Z,85.60
2018-09-30T08:54:21.484Z,84.50
2018-09-30T08:56:51.465Z,84.20
2018-09-30T08:59:20.967Z,83.30
2018-09-30T09:01:51.860Z,82.80
2018-09-30T09:04:21.011Z,82.30
2018-09-30T09:06:50.363Z,82.40
2018-09-30T09:09:19.573Z,82.00
2018-09-30T09:11:49.130Z,81.60
2018-09-30T09:14:19.127Z,81.90
2018-09-30T09:16:48.317Z,81.70
2018-09-30T09:19:19.272Z,81.10
2018-09-30T09:21:48.792Z,82.00
2018-09-30T09:24:18.132Z,81.30
2018-09-30T09:26:54.140Z,80.60
2018-09-30T09:29:23.486Z,80.20
2018-09-30T09:31:52.980Z,79.70
2018-09-30T09:34:24.092Z,80.10
2018-09-30T09:36:54.166Z,80.20
2018-09-30T09:39:23.807Z,79.00
2018-09-30T09:41:53.782Z,78.50
2018-09-30T09:44:24.682Z,78.10
2018-09-30T09:47:02.003Z,78.40
2018-09-30T09:49:31.951Z,78.30
2018-09-30T09:52:01.458Z,77.10
2018-09-30T09:54:31.428Z,77.20
2018-09-30T09:57:02.953Z,77.00
2018-09-30T09:59:34.673Z,76.50
2018-09-30T10:02:10.869Z,76.00
2018-09-30T10:07:39.840Z,75.90
2018-09-30T10:10:11.245Z,75.00
2018-09-30T10:12:42.781Z,74.50
2018-09-30T10:15:17.699Z,73.80
2018-09-30T10:17:49.671Z,73.40
2018-09-30T10:20:21.181Z,73.00
2018-09-30T10:22:51.942Z,73.00
2018-09-30T10:25:26.595Z,72.50
2018-09-30T10:27:57.433Z,71.50
2018-09-30T10:30:39.043Z,72.50
2018-09-30T10:33:09.355Z,73.20
2018-09-30T10:35:42.312Z,72.70
2018-09-30T10:38:13.574Z,71.40
2018-09-30T10:40:47.312Z,71.00
2018-09-30T10:43:22.516Z,71.20
2018-09-30T10:45:55.687Z,70.90
2018-09-30T10:48:31.510Z,70.10
2018-09-30T10:51:09.577Z,69.80
2018-09-30T10:53:42.382Z,68.60
2018-09-30T10:56:13.849Z,68.90
2018-09-30T10:58:48.167Z,68.80
2018-09-30T11:01:21.350Z,67.90
2018-09-30T11:04:06.398Z,67.70
2018-09-30T11:06:40.296Z,68.00
2018-09-30T11:09:25.207Z,66.90
2018-09-30T11:11:55.618Z,67.40
2018-09-30T11:14:29.959Z,67.80
2018-09-30T11:17:19.550Z,68.00
2018-09-30T11:19:53.319Z,67.00
2018-09-30T11:22:28.131Z,66.50
2018-09-30T11:25:16.741Z,65.30
2018-09-30T11:27:55.119Z,66.00
2018-09-30T11:30:30.938Z,65.50
2018-09-30T11:33:08.604Z,65.30
2018-09-30T11:35:43.545Z,65.00
2018-09-30T11:38:19.338Z,65.20
2018-09-30T11:40:50.942Z,65.10
2018-09-30T11:43:28.499Z,64.70
2018-09-30T11:46:00.711Z,64.10
2018-09-30T11:48:38.418Z,63.60
2018-09-30T11:51:13.022Z,63.90
2018-09-30T11:53:45.815Z,63.10
2018-09-30T11:56:20.811Z,62.70
2018-09-30T11:58:53.178Z,62.40
2018-09-30T12:04:20.892Z,61.70
2018-09-30T12:06:55.331Z,61.90
2018-09-30T12:15:29.821Z,61.10
2018-09-30T12:18:04.057Z,60.40
2018-09-30T12:20:38.577Z,60.20
2018-09-30T12:23:11.929Z,59.60
2018-09-30T12:25:53.858Z,59.70
2018-09-30T12:28:27.306Z,59.10
2018-09-30T12:30:59.557Z,59.00
2018-09-30T12:36:30.996Z,58.60
2018-09-30T12:39:03.242Z,58.70
2018-09-30T12:41:50.181Z,58.20
2018-09-30T12:44:23.828Z,57.80
2018-09-30T12:47:00.098Z,58.30
2018-09-30T12:49:31.449Z,58.30
2018-09-30T12:52:20.048Z,58.40
2018-09-30T12:54:51.754Z,57.90
2018-09-30T12:57:45.933Z,58.60
2018-09-30T13:00:19.268Z,58.10
2018-09-30T13:02:51.860Z,57.70
2018-09-30T13:05:23.959Z,57.80
2018-09-30T13:08:11.958Z,58.00
2018-09-30T13:10:46.903Z,57.80
2018-09-30T13:16:18.455Z,57.90
2018-09-30T13:21:57.274Z,57.60
2018-09-30T13:24:29.096Z,58.10
2018-09-30T13:27:05.375Z,57.80
2018-09-30T13:29:40.205Z,57.70
2018-09-30T13:32:16.267Z,57.80
2018-09-30T13:34:47.723Z,57.50
2018-09-30T13:37:20.125Z,57.60
2018-09-30T13:39:57.947Z,57.70
2018-09-30T13:42:28.844Z,58.00
2018-09-30T13:45:01.913Z,57.90
2018-09-30T13:47:39.408Z,57.50
2018-09-30T13:50:33.431Z,57.60
2018-09-30T13:53:06.684Z,57.70
2018-09-30T13:55:41.873Z,57.60
2018-09-30T13:58:14.658Z,58.00
2018-09-30T14:00:57.094Z,58.10
2018-09-30T14:03:34.301Z,58.00
2018-09-30T14:06:16.209Z,57.60
2018-09-30T14:08:51.249Z,57.00
2018-09-30T14:11:23.722Z,57.00
2018-09-30T14:13:58.330Z,56.80
2018-09-30T14:16:35.942Z,57.00
2018-09-30T14:19:46.208Z,56.50
2018-09-30T14:28:17.357Z,57.10
2018-09-30T14:30:49.298Z,56.80
2018-09-30T14:33:28.171Z,57.00
2018-09-30T14:36:03.459Z,56.90
2018-09-30T14:38:45.974Z,56.40
2018-09-30T14:41:25.318Z,57.10
2018-09-30T14:44:01.764Z,57.00
2018-09-30T14:46:40.125Z,56.10
2018-09-30T14:49:15.591Z,55.80
2018-09-30T14:51:47.747Z,55.40
2018-09-30T14:54:27.065Z,55.30
2018-09-30T14:57:19.174Z,55.50
2018-09-30T14:59:57.456Z,55.10
2018-09-30T15:02:32.928Z,55.30
2018-09-30T15:05:11.392Z,55.30
2018-09-30T15:07:46.106Z,55.50
2018-09-30T15:10:18.778Z,55.60
2018-09-30T15:12:53.029Z,55.60
2018-09-30T15:15:27.190Z,55.90
2018-09-30T15:18:14.479Z,56.00
2018-09-30T15:20:49.569Z,55.40
2018-09-30T15:23:23.209Z,56.00
2018-09-30T15:25:57.964Z,56.10
2018-09-30T15:28:42.025Z,56.40
2018-09-30T15:31:17.475Z,56.30
2018-09-30T15:36:35.183Z,56.70
2018-09-30T15:39:13.144Z,57.10
2018-09-30T15:41:46.557Z,57.70
2018-09-30T15:44:20.485Z,57.80
2018-09-30T15:46:55.050Z,58.20
2018-09-30T15:49:31.608Z,58.40
2018-09-30T15:52:09.084Z,58.60
2018-09-30T15:54:43.722Z,58.80
2018-09-30T15:57:21.809Z,59.10
2018-09-30T15:59:55.543Z,59.20
2018-09-30T16:02:32.227Z,59.60
2018-09-30T16:05:06.302Z,59.90
2018-09-30T16:07:40.908Z,60.30
2018-09-30T16:10:17.183Z,60.80
2018-09-30T16:12:49.718Z,61.20
2018-09-30T16:15:26.676Z,61.30
2018-09-30T16:18:00.095Z,61.60
2018-09-30T16:20:32.503Z,62.50
2018-09-30T16:23:04.314Z,62.50
2018-09-30T16:25:36.676Z,63.10
2018-09-30T16:28:07.512Z,63.70
2018-09-30T16:30:43.460Z,64.00
2018-09-30T16:33:18.220Z,64.30
2018-09-30T16:35:50.974Z,64.70
2018-09-30T16:38:24.114Z,65.40
2018-09-30T16:40:56.598Z,65.60
2018-09-30T16:43:31.534Z,65.70
2018-09-30T16:46:03.161Z,65.60
2018-09-30T16:48:35.855Z,66.10
2018-09-30T16:51:07.710Z,66.60
2018-09-30T16:53:42.398Z,66.80
2018-09-30T16:56:14.842Z,67.00
2018-09-30T16:58:46.530Z,68.20
2018-09-30T17:01:25.879Z,68.00
2018-09-30T17:03:57.158Z,68.20
2018-09-30T17:06:27.548Z,68.50
2018-09-30T17:08:59.006Z,69.20
2018-09-30T17:11:29.415Z,70.50
2018-09-30T17:14:00.105Z,71.40
2018-09-30T17:16:30.899Z,70.80
2018-09-30T17:19:01.586Z,71.10
2018-09-30T17:21:33.141Z,71.50
2018-09-30T17:24:04.662Z,72.00
2018-09-30T17:26:57.636Z,73.00
2018-09-30T17:29:28.220Z,73.90
2018-09-30T17:31:59.223Z,76.80
2018-09-30T17:34:30.057Z,77.50
2018-09-30T17:37:00.297Z,78.70
2018-09-30T17:39:31.469Z,79.90
2018-09-30T17:42:02.616Z,81.20
2018-09-30T17:44:34.338Z,81.80
2018-09-30T17:47:07.079Z,82.10
2018-09-30T17:49:37.848Z,82.40
2018-09-30T17:52:07.712Z,83.60
2018-09-30T17:54:38.600Z,85.80
2018-09-30T17:57:09.003Z,86.80
2018-09-30T17:59:43.084Z,88.80
2018-09-30T18:02:19.604Z,88.90
2018-09-30T18:04:53.804Z,90.30
2018-09-30T18:07:27.752Z,91.10
2018-09-30T18:09:57.690Z,91.40
2018-09-30T18:12:31.926Z,91.60
2018-09-30T18:15:07.519Z,92.00
2018-09-30T18:17:37.896Z,92.20
2018-09-30T18:20:15.961Z,92.40
2018-09-30T18:22:47.190Z,93.00
2018-09-30T18:25:18.164Z,93.40
2018-09-30T18:27:56.087Z,94.00
2018-09-30T18:30:26.163Z,94.50
2018-09-30T18:32:56.269Z,94.50
2018-09-30T18:35:26.726Z,94.70
2018-09-30T18:37:56.653Z,95.00
2018-09-30T18:40:26.513Z,95.10
2018-09-30T18:42:56.272Z,95.30
2018-09-30T18:45:26.570Z,95.60
2018-09-30T18:47:57.100Z,95.60
2018-09-30T18:50:32.317Z,96.10
2018-09-30T18:53:02.672Z,96.40
2018-09-30T18:55:32.782Z,96.80
2018-09-30T18:58:02.365Z,97.20
2018-09-30T19:00:33.766Z,97.60
2018-09-30T19:03:03.662Z,97.80
2018-09-30T19:05:35.194Z,98.00
2018-09-30T19:08:05.210Z,98.20
2018-09-30T19:10:36.358Z,98.20
2018-09-30T19:13:20.201Z,98.30
2018-09-30T19:15:50.562Z,98.50
2018-09-30T19:18:26.279Z,98.20
2018-09-30T19:20:56.447Z,98.60
2018-09-30T19:23:27.180Z,98.50
2018-09-30T19:25:57.375Z,99.10
2018-09-30T19:28:39.174Z,99.10
2018-09-30T19:31:09.254Z,99.20
2018-09-30T19:33:39.145Z,99.50
2018-09-30T19:36:10.079Z,99.70
2018-09-30T19:38:41.094Z,99.90
2018-09-30T19:41:10.582Z,99.90
2018-09-30T19:43:40.501Z,99.90
2018-09-30T19:46:11.352Z,99.90
2018-09-30T19:48:41.491Z,99.90
2018-09-30T19:51:12.531Z,99.90
2018-09-30T19:53:43.398Z,99.90
2018-09-30T19:56:13.170Z,99.90
2018-09-30T19:58:42.736Z,99.90
2018-09-30T20:01:16.726Z,99.90
2018-09-30T20:03:48.327Z,99.90
2018-09-30T20:06:18.213Z,99.90
2018-09-30T20:08:48.073Z,99.90
2018-09-30T20:11:17.877Z,99.90
2018-09-30T20:13:48.081Z,99.90
2018-09-30T20:16:18.105Z,99.90
2018-09-30T20:18:47.622Z,99.90
2018-09-30T20:21:17.990Z,99.90
2018-09-30T20:23:48.830Z,99.90
2018-09-30T20:26:18.531Z,99.90
2018-09-30T20:28:48.533Z,99.90
2018-09-30T20:31:18.117Z,99.90
2018-09-30T20:33:47.762Z,99.90
2018-09-30T20:36:17.909Z,99.90
2018-09-30T20:38:47.542Z,99.90
2018-09-30T20:41:17.767Z,99.90
2018-09-30T20:43:48.370Z,99.90
2018-09-30T20:46:18.058Z,99.90
2018-09-30T20:48:47.644Z,99.90
2018-09-30T20:51:17.129Z,99.90
2018-09-30T20:53:46.828Z,99.90
2018-09-30T20:56:16.551Z,99.90
2018-09-30T20:58:46.984Z,99.90
2018-09-30T21:01:16.610Z,99.90
2018-09-30T21:03:46.343Z,99.90
2018-09-30T21:06:36.366Z,99.90
2018-09-30T21:09:09.628Z,99.90
2018-09-30T21:11:43.329Z,99.90
2018-09-30T21:14:13.439Z,99.90
2018-09-30T21:16:43.594Z,99.90
2018-09-30T21:19:12.942Z,99.90
2018-09-30T21:21:42.623Z,99.90
2018-09-30T21:24:12.448Z,99.90
2018-09-30T21:26:41.852Z,99.90
2018-09-30T21:29:12.525Z,99.90
2018-09-30T21:31:42.566Z,99.90
2018-09-30T21:34:12.429Z,99.90
2018-09-30T21:36:42.483Z,99.90
2018-09-30T21:39:28.168Z,99.90
2018-09-30T21:41:58.120Z,99.90
2018-09-30T21:44:27.763Z,99.90
2018-09-30T21:46:57.556Z,99.90
2018-09-30T21:49:27.317Z,99.90
2018-09-30T21:52:01.650Z,99.90
2018-09-30T21:54:31.290Z,99.90
2018-09-30T21:57:00.795Z,99.90
2018-09-30T21:59:30.622Z,99.90
2018-09-30T22:02:00.469Z,99.90
2018-09-30T22:04:29.920Z,99.90
2018-09-30T22:07:00.015Z,99.90
2018-09-30T22:09:30.242Z,99.90
2018-09-30T22:12:00.244Z,99.90
2018-09-30T22:14:30.127Z,99.90
2018-09-30T22:17:00.027Z,99.90
2018-09-30T22:19:29.752Z,99.90
2018-09-30T22:22:00.050Z,99.90
2018-09-30T22:24:30.161Z,99.90
2018-09-30T22:27:00.569Z,99.90
2018-09-30T22:29:30.261Z,99.90
2018-09-30T22:32:00.532Z,99.90
2018-09-30T22:34:30.224Z,99.90
2018-09-30T22:37:00.158Z,99.90
2018-09-30T22:39:30.429Z,99.90
2018-09-30T22:42:00.091Z,99.90
2018-09-30T22:44:29.684Z,99.90
2018-09-30T22:46:59.450Z,99.90
2018-09-30T22:49:28.707Z,99.90
2018-09-30T22:51:58.087Z,99.90
2018-09-30T22:54:27.641Z,99.90
2018-09-30T22:56:56.990Z,99.90
2018-09-30T22:59:26.873Z,99.90
2018-09-30T23:01:56.439Z,99.90
2018-09-30T23:04:25.966Z,99.90
2018-09-30T23:06:56.546Z,99.90
2018-09-30T23:09:26.306Z,99.90
2018-09-30T23:11:55.948Z,99.90
2018-09-30T23:14:26.975Z,99.90
2018-09-30T23:16:57.075Z,99.90
2018-09-30T23:19:27.062Z,99.90
2018-09-30T23:21:56.552Z,99.90
2018-09-30T23:24:26.478Z,99.90
2018-09-30T23:26:56.084Z,99.90
2018-09-30T23:29:25.996Z,99.90
2018-09-30T23:31:55.642Z,99.90
2018-09-30T23:34:25.921Z,99.90
2018-09-30T23:36:55.879Z,99.90
2018-09-30T23:39:25.084Z,99.90
2018-09-30T23:41:54.801Z,99.90
2018-09-30T23:44:24.555Z,99.90
2018-09-30T23:46:54.204Z,99.90
2018-09-30T23:49:23.684Z,99.90
2018-09-30T23:51:53.257Z,99.90
2018-09-30T23:54:22.891Z,99.90
2018-09-30T23:56:53.697Z,99.90
2018-09-30T23:59:26.996Z,99.90
